createdAt,value
2023-04-22T00:01:26.996Z,15.98
2023-04-22T00:03:54.327Z,20.98
2023-04-22T00:06:21.632Z,10.25
2023-04-22T00:08:48.726Z,11.75
2023-04-22T00:11:15.741Z,18.40
2023-04-22T00:13:43.198Z,22.48
2023-04-22T00:16:10.256Z,11.63
2023-04-22T00:18:37.284Z,11.00
2023-04-22T00:21:04.673Z,10.90
2023-04-22T00:23:31.711Z,12.48
2023-04-22T00:25:58.883Z,10.30
2023-04-22T00:28:25.892Z,10.75
2023-04-22T00:30:53.058Z,11.00
2023-04-22T00:33:20.241Z,14.52
2023-04-22T00:35:47.227Z,13.23
2023-04-22T00:38:14.313Z,18.50
2023-04-22T00:40:41.444Z,12.07
2023-04-22T00:43:09.349Z,15.00
2023-04-22T00:45:37.567Z,12.80
2023-04-22T00:48:05.298Z,11.38
2023-04-22T00:50:32.302Z,12.07
2023-04-22T00:52:59.305Z,11.95
2023-04-22T00:55:26.875Z,8.77
2023-04-22T00:57:55.689Z,17.67
2023-04-22T01:00:27.103Z,21.38
2023-04-22T01:02:55.115Z,15.32
2023-04-22T01:05:23.860Z,8.98
2023-04-22T01:07:51.196Z,9.80
2023-04-22T01:10:18.611Z,10.30
2023-04-22T01:12:45.770Z,14.43
2023-04-22T01:15:13.068Z,7.10
2023-04-22T01:17:40.270Z,9.63
2023-04-22T01:20:10.314Z,8.55
2023-04-22T01:22:41.957Z,9.32
2023-04-22T01:25:10.007Z,14.18
2023-04-22T01:27:38.539Z,14.52
2023-04-22T01:30:07.742Z,11.00
2023-04-22T01:32:36.099Z,9.52
2023-04-22T01:35:03.751Z,11.38
2023-04-22T01:37:31.012Z,8.73
2023-04-22T01:39:59.233Z,14.38
2023-04-22T01:42:26.528Z,10.95
2023-04-22T01:44:54.203Z,10.45
2023-04-22T01:47:21.284Z,12.38
2023-04-22T01:49:48.372Z,23.05
2023-04-22T01:52:15.928Z,14.63
2023-04-22T01:54:42.977Z,12.60
2023-04-22T01:57:14.031Z,11.63
2023-04-22T01:59:41.628Z,14.30
2023-04-22T02:02:09.147Z,17.67
2023-04-22T02:04:36.474Z,13.05
2023-04-22T02:07:03.625Z,13.85
2023-04-22T02:09:33.558Z,11.60
2023-04-22T02:12:01.414Z,14.75
2023-04-22T02:14:28.512Z,17.50
2023-04-22T02:16:55.590Z,10.07
2023-04-22T02:19:22.719Z,12.07
2023-04-22T02:21:49.876Z,9.00
2023-04-22T02:24:17.055Z,9.43
2023-04-22T02:26:44.081Z,8.80
2023-04-22T02:29:11.195Z,9.80
2023-04-22T02:31:38.258Z,10.45
2023-04-22T02:34:05.315Z,12.90
2023-04-22T02:36:32.397Z,10.43
2023-04-22T02:38:59.460Z,10.80
2023-04-22T02:41:26.455Z,7.80
2023-04-22T02:43:53.467Z,11.40
2023-04-22T02:46:20.600Z,19.70
2023-04-22T02:48:48.629Z,15.20
2023-04-22T02:51:15.965Z,20.67
2023-04-22T02:53:43.139Z,15.10
2023-04-22T02:56:10.257Z,16.55
2023-04-22T02:58:37.259Z,20.02
2023-04-22T03:01:04.378Z,13.48
2023-04-22T03:03:32.032Z,20.92
2023-04-22T03:05:59.369Z,15.60
2023-04-22T03:08:26.430Z,18.55
2023-04-22T03:10:53.514Z,18.10
2023-04-22T03:13:22.594Z,20.77
2023-04-22T03:15:50.811Z,20.05
2023-04-22T03:18:18.351Z,17.50
2023-04-22T03:20:45.640Z,19.83
2023-04-22T03:23:12.643Z,14.30
2023-04-22T03:25:41.062Z,13.93
2023-04-22T03:28:08.210Z,17.48
2023-04-22T03:30:35.304Z,15.07
2023-04-22T03:33:02.434Z,15.20
2023-04-22T03:35:40.962Z,12.07
2023-04-22T03:38:08.397Z,10.85
2023-04-22T03:40:37.680Z,16.50
2023-04-22T03:43:13.131Z,16.55
2023-04-22T03:45:40.628Z,18.20
2023-04-22T03:48:17.287Z,19.40
2023-04-22T03:50:48.555Z,14.35
2023-04-22T03:53:17.003Z,15.43
2023-04-22T03:55:44.732Z,14.90
2023-04-22T03:58:14.153Z,19.67
2023-04-22T04:00:41.225Z,16.52
2023-04-22T04:03:14.795Z,9.85
2023-04-22T04:05:42.208Z,6.57
2023-04-22T04:08:09.426Z,10.02
2023-04-22T04:10:36.958Z,13.05
2023-04-22T04:13:04.691Z,19.60
2023-04-22T04:15:39.070Z,13.32
2023-04-22T04:18:07.211Z,13.93
2023-04-22T04:20:34.289Z,11.50
2023-04-22T04:23:01.364Z,9.68
2023-04-22T04:25:30.928Z,13.63
2023-04-22T04:27:58.001Z,13.43
2023-04-22T04:30:25.659Z,17.23
2023-04-22T04:32:54.942Z,13.23
2023-04-22T04:35:23.673Z,5.95
2023-04-22T04:37:54.362Z,11.60
2023-04-22T04:40:21.890Z,7.45
2023-04-22T04:43:08.447Z,8.07
2023-04-22T04:45:49.500Z,7.47
2023-04-22T04:48:25.014Z,12.52
2023-04-22T04:50:55.449Z,5.88
2023-04-22T04:53:24.492Z,8.05
2023-04-22T04:55:51.851Z,8.63
2023-04-22T04:58:22.530Z,10.55
2023-04-22T05:01:00.881Z,4.70
2023-04-22T05:03:28.059Z,6.50
2023-04-22T05:05:56.401Z,7.32
2023-04-22T05:08:23.616Z,5.65
2023-04-22T05:10:52.895Z,10.63
2023-04-22T05:13:19.972Z,6.25
2023-04-22T05:15:48.630Z,7.68
2023-04-22T05:18:17.997Z,11.85
2023-04-22T05:20:45.135Z,11.43
2023-04-22T05:23:12.333Z,6.63
2023-04-22T05:25:39.550Z,5.75
2023-04-22T05:28:10.640Z,12.18
2023-04-22T05:30:45.411Z,5.25
2023-04-22T05:33:12.544Z,4.28
2023-04-22T05:35:39.721Z,6.32
2023-04-22T05:38:07.731Z,9.20
2023-04-22T05:40:36.828Z,6.45
2023-04-22T05:43:05.617Z,4.28
2023-04-22T05:45:33.471Z,6.25
2023-04-22T05:48:00.934Z,3.92
2023-04-22T05:50:32.184Z,8.48
2023-04-22T05:53:05.838Z,7.43
2023-04-22T05:55:32.908Z,4.82
2023-04-22T05:57:59.963Z,3.03
2023-04-22T06:00:43.589Z,5.57
2023-04-22T06:03:31.419Z,5.15
2023-04-22T06:05:58.788Z,5.38
2023-04-22T06:08:25.987Z,4.65
2023-04-22T06:10:53.005Z,7.45
2023-04-22T06:13:21.625Z,4.05
2023-04-22T06:15:48.864Z,4.30
2023-04-22T06:18:16.011Z,4.22
2023-04-22T06:20:43.064Z,4.18
2023-04-22T06:23:10.129Z,3.88
2023-04-22T06:25:37.183Z,3.58
2023-04-22T06:28:04.466Z,3.53
2023-04-22T06:30:34.826Z,2.70
2023-04-22T06:33:01.937Z,4.97
2023-04-22T06:35:29.113Z,3.13
2023-04-22T06:37:56.311Z,3.90
2023-04-22T06:40:28.043Z,3.33
2023-04-22T06:43:13.970Z,2.35
2023-04-22T06:45:59.530Z,2.50
2023-04-22T06:48:45.698Z,8.20
2023-04-22T06:51:31.898Z,3.65
2023-04-22T06:53:59.079Z,6.32
2023-04-22T06:56:26.184Z,4.90
2023-04-22T06:58:53.343Z,2.13
2023-04-22T07:01:20.818Z,1.20
2023-04-22T07:03:48.080Z,2.85
2023-04-22T07:06:15.873Z,2.78
2023-04-22T07:08:42.971Z,2.38
2023-04-22T07:11:11.939Z,5.53
2023-04-22T07:13:46.708Z,4.70
2023-04-22T07:16:13.876Z,2.17
2023-04-22T07:18:40.971Z,2.80
2023-04-22T07:21:08.288Z,6.75
2023-04-22T07:23:35.368Z,2.47
2023-04-22T07:26:02.795Z,3.35
2023-04-22T07:28:29.989Z,2.45
2023-04-22T07:30:57.123Z,1.98
2023-04-22T07:33:24.135Z,3.22
2023-04-22T07:35:51.252Z,5.25
2023-04-22T07:38:18.319Z,1.40
2023-04-22T07:40:45.399Z,3.47
2023-04-22T07:43:12.558Z,2.28
2023-04-22T07:45:39.657Z,4.22
2023-04-22T07:48:06.709Z,5.63
2023-04-22T07:50:33.687Z,3.10
2023-04-22T07:53:00.851Z,2.97
2023-04-22T07:55:27.972Z,2.50
2023-04-22T07:57:55.136Z,2.92
2023-04-22T08:00:22.129Z,4.03
2023-04-22T08:02:49.230Z,2.97
2023-04-22T08:05:16.317Z,4.50
2023-04-22T08:07:43.519Z,2.13
2023-04-22T08:10:10.928Z,2.97
2023-04-22T08:12:38.028Z,4.97
2023-04-22T08:15:05.919Z,1.48
2023-04-22T08:17:33.101Z,3.60
2023-04-22T08:20:00.150Z,2.95
2023-04-22T08:22:27.493Z,2.10
2023-04-22T08:24:54.529Z,1.58
2023-04-22T08:27:22.805Z,2.65
2023-04-22T08:29:49.836Z,12.65
2023-04-22T08:32:19.499Z,4.82
2023-04-22T08:34:46.716Z,2.58
2023-04-22T08:37:14.047Z,2.13
2023-04-22T08:39:41.226Z,3.75
2023-04-22T08:42:09.273Z,2.05
2023-04-22T08:44:37.708Z,3.63
2023-04-22T08:47:05.304Z,5.03
2023-04-22T08:49:35.150Z,4.30
2023-04-22T08:52:02.217Z,5.55
2023-04-22T08:54:29.271Z,4.32
2023-04-22T08:56:56.952Z,3.22
2023-04-22T08:59:24.123Z,3.33
2023-04-22T09:01:55.367Z,4.22
2023-04-22T09:04:22.776Z,2.05
2023-04-22T09:06:49.930Z,2.13
2023-04-22T09:09:17.338Z,3.53
2023-04-22T09:11:44.365Z,6.35
2023-04-22T09:14:11.374Z,4.57
2023-04-22T09:16:44.718Z,6.38
2023-04-22T09:19:13.128Z,7.78
2023-04-22T09:21:41.385Z,2.38
2023-04-22T09:24:10.551Z,4.68
2023-04-22T09:26:42.657Z,4.70
2023-04-22T09:29:14.765Z,3.10
2023-04-22T09:31:42.352Z,5.63
2023-04-22T09:34:09.547Z,1.70
2023-04-22T09:36:40.542Z,2.45
2023-04-22T09:39:08.201Z,3.63
2023-04-22T09:41:38.775Z,4.63
2023-04-22T09:44:11.035Z,2.35
2023-04-22T09:46:38.021Z,2.50
2023-04-22T09:49:05.689Z,1.60
2023-04-22T09:51:32.774Z,20.50
2023-04-22T09:54:06.277Z,4.47
2023-04-22T09:56:53.563Z,4.05
2023-04-22T09:59:22.332Z,1.13
2023-04-22T10:02:03.920Z,4.05
2023-04-22T10:04:31.349Z,4.35
2023-04-22T10:06:59.687Z,5.53
2023-04-22T10:09:26.955Z,1.52
2023-04-22T10:11:55.799Z,4.07
2023-04-22T10:14:23.216Z,5.47
2023-04-22T10:16:54.480Z,2.92
2023-04-22T10:19:23.275Z,11.48
2023-04-22T10:21:55.772Z,5.03
2023-04-22T10:27:00.024Z,5.40
2023-04-22T10:29:39.352Z,4.15
2023-04-22T10:32:24.463Z,4.97
2023-04-22T10:35:08.217Z,5.80
2023-04-22T10:37:35.807Z,4.05
2023-04-22T10:40:16.623Z,2.00
2023-04-22T10:42:52.477Z,2.78
2023-04-22T10:45:24.796Z,2.05
2023-04-22T10:47:52.044Z,1.10
2023-04-22T10:50:31.495Z,6.47
2023-04-22T10:53:22.444Z,2.70
2023-04-22T10:55:53.405Z,7.55
2023-04-22T10:58:24.137Z,5.60
2023-04-22T11:01:00.232Z,3.78
2023-04-22T11:03:30.358Z,1.75
2023-04-22T11:06:30.101Z,0.60
2023-04-22T11:09:12.817Z,6.53
2023-04-22T11:11:39.828Z,5.60
2023-04-22T11:14:09.003Z,6.35
2023-04-22T11:16:36.994Z,6.18
2023-04-22T11:19:04.033Z,3.28
2023-04-22T11:21:31.548Z,3.70
2023-04-22T11:24:02.778Z,6.10
2023-04-22T11:26:35.325Z,4.47
2023-04-22T11:31:29.304Z,6.10
2023-04-22T11:33:59.684Z,2.35
2023-04-22T11:36:27.609Z,1.20
2023-04-22T11:38:57.459Z,1.27
2023-04-22T11:41:24.527Z,5.80
2023-04-22T11:43:51.929Z,1.20
2023-04-22T11:46:29.109Z,5.70
2023-04-22T11:49:12.382Z,2.85
2023-04-22T11:51:52.912Z,4.00
2023-04-22T11:54:36.869Z,2.22
2023-04-22T11:57:06.631Z,3.30
2023-04-22T11:59:34.507Z,8.30
2023-04-22T12:02:05.520Z,8.57
2023-04-22T12:04:38.217Z,1.70
2023-04-22T12:09:33.538Z,7.65
2023-04-22T12:12:03.626Z,2.15
2023-04-22T12:14:34.832Z,2.38
2023-04-22T12:17:05.805Z,6.18
2023-04-22T12:19:32.879Z,2.08
2023-04-22T12:21:59.943Z,4.53
2023-04-22T12:24:28.423Z,3.63
2023-04-22T12:26:55.617Z,9.50
2023-04-22T12:29:33.200Z,1.55
2023-04-22T12:32:00.788Z,8.13
2023-04-22T12:34:27.870Z,4.15
2023-04-22T12:36:56.219Z,1.52
2023-04-22T12:39:23.251Z,8.32
2023-04-22T12:41:51.004Z,7.35
2023-04-22T12:44:18.179Z,3.75
2023-04-22T12:46:46.477Z,4.35
2023-04-22T12:49:14.465Z,2.45
2023-04-22T12:51:41.491Z,3.40
2023-04-22T12:54:08.579Z,6.88
2023-04-22T12:56:36.158Z,2.50
2023-04-22T12:59:03.327Z,4.10
2023-04-22T13:01:31.263Z,9.57
2023-04-22T13:03:58.584Z,3.95
2023-04-22T13:06:26.767Z,3.25
2023-04-22T13:08:53.765Z,1.23
2023-04-22T13:11:21.852Z,6.60
2023-04-22T13:13:48.974Z,2.85
2023-04-22T13:16:16.604Z,5.18
2023-04-22T13:18:43.785Z,7.72
2023-04-22T13:21:13.626Z,4.25
2023-04-22T13:23:40.648Z,2.17
2023-04-22T13:26:07.744Z,3.20
2023-04-22T13:28:34.772Z,2.42
2023-04-22T13:31:02.126Z,3.08
2023-04-22T13:33:29.120Z,6.45
2023-04-22T13:35:56.193Z,3.33
2023-04-22T13:38:23.264Z,4.28
2023-04-22T13:40:50.239Z,3.72
2023-04-22T13:43:17.372Z,2.55
2023-04-22T13:45:44.557Z,9.35
2023-04-22T13:48:11.612Z,3.53
2023-04-22T13:50:42.464Z,4.68
2023-04-22T13:53:11.803Z,1.42
2023-04-22T13:55:39.369Z,2.05
2023-04-22T13:58:07.559Z,1.42
2023-04-22T14:00:35.082Z,3.90
2023-04-22T14:03:02.383Z,2.78
2023-04-22T14:05:29.542Z,4.32
2023-04-22T14:07:56.746Z,5.43
2023-04-22T14:10:23.774Z,2.70
2023-04-22T14:12:51.012Z,2.58
2023-04-22T14:15:18.080Z,7.47
2023-04-22T14:17:49.160Z,2.25
2023-04-22T14:20:16.340Z,4.97
2023-04-22T14:22:43.318Z,6.47
2023-04-22T14:25:10.689Z,3.47
2023-04-22T14:27:37.961Z,7.03
2023-04-22T14:30:06.383Z,4.47
2023-04-22T14:32:33.492Z,2.38
2023-04-22T14:35:00.627Z,2.85
2023-04-22T14:37:27.779Z,4.97
2023-04-22T14:39:54.959Z,3.53
2023-04-22T14:42:21.988Z,11.13
2023-04-22T14:44:49.233Z,3.60
2023-04-22T14:47:16.212Z,3.00
2023-04-22T14:49:43.403Z,3.88
2023-04-22T14:52:10.714Z,2.50
2023-04-22T14:54:37.755Z,5.78
2023-04-22T14:57:04.875Z,3.58
2023-04-22T14:59:31.868Z,3.20
2023-04-22T15:01:58.994Z,7.20
2023-04-22T15:04:26.521Z,5.18
2023-04-22T15:06:57.333Z,3.72
2023-04-22T15:09:24.500Z,3.55
2023-04-22T15:11:51.773Z,7.00
2023-04-22T15:14:18.880Z,5.57
2023-04-22T15:16:45.888Z,4.38
2023-04-22T15:19:13.671Z,8.38
2023-04-22T15:21:40.680Z,5.35
2023-04-22T15:24:07.731Z,3.17
2023-04-22T15:26:34.855Z,4.10
2023-04-22T15:29:02.143Z,4.25
2023-04-22T15:31:29.247Z,4.88
2023-04-22T15:33:56.282Z,5.88
2023-04-22T15:36:23.456Z,7.05
2023-04-22T15:38:57.523Z,3.47
2023-04-22T15:41:26.202Z,5.88
2023-04-22T15:43:53.360Z,6.00
2023-04-22T15:46:21.473Z,2.67
2023-04-22T15:48:49.137Z,1.52
2023-04-22T15:51:16.756Z,5.85
2023-04-22T15:53:45.455Z,1.75
2023-04-22T15:56:14.744Z,3.22
2023-04-22T15:58:41.788Z,4.97
2023-04-22T16:01:18.838Z,6.10
2023-04-22T16:03:49.920Z,7.55
2023-04-22T16:06:18.382Z,6.70
2023-04-22T16:08:45.820Z,4.25
2023-04-22T16:11:14.257Z,2.15
2023-04-22T16:13:41.721Z,2.83
2023-04-22T16:16:09.265Z,4.60
2023-04-22T16:18:36.536Z,4.57
2023-04-22T16:21:04.297Z,2.53
2023-04-22T16:23:32.086Z,2.33
2023-04-22T16:25:59.241Z,3.10
2023-04-22T16:28:26.515Z,2.78
2023-04-22T16:30:53.611Z,6.10
2023-04-22T16:33:20.670Z,6.18
2023-04-22T16:35:47.975Z,4.00
2023-04-22T16:38:15.004Z,3.40
2023-04-22T16:40:42.043Z,4.50
2023-04-22T16:43:09.914Z,6.57
2023-04-22T16:45:37.001Z,2.40
2023-04-22T16:48:04.017Z,3.83
2023-04-22T16:50:31.619Z,2.28
2023-04-22T16:52:58.609Z,2.97
2023-04-22T16:55:25.620Z,2.53
2023-04-22T16:57:52.820Z,8.93
2023-04-22T17:00:20.793Z,24.17
2023-04-22T17:02:47.938Z,6.60
2023-04-22T17:05:15.199Z,6.32
2023-04-22T17:07:42.312Z,3.38
2023-04-22T17:10:09.408Z,7.10
2023-04-22T17:12:36.465Z,7.55
2023-04-22T17:15:03.993Z,8.50
2023-04-22T17:17:31.041Z,6.55
2023-04-22T17:19:58.225Z,2.33
2023-04-22T17:22:25.453Z,2.53
2023-04-22T17:24:52.540Z,3.53
2023-04-22T17:27:19.608Z,3.35
2023-04-22T17:29:46.751Z,3.92
2023-04-22T17:32:13.814Z,5.63
2023-04-22T17:34:41.166Z,4.38
2023-04-22T17:37:08.540Z,7.25
2023-04-22T17:39:35.782Z,5.32
2023-04-22T17:42:02.901Z,4.30
2023-04-22T17:44:31.011Z,5.50
2023-04-22T17:46:58.213Z,9.18
2023-04-22T17:49:25.211Z,4.57
2023-04-22T17:51:53.499Z,6.63
2023-04-22T17:54:20.646Z,4.47
2023-04-22T17:56:47.714Z,5.97
2023-04-22T17:59:14.723Z,5.47
2023-04-22T18:01:42.873Z,6.05
2023-04-22T18:04:11.069Z,4.72
2023-04-22T18:06:38.113Z,4.35
2023-04-22T18:09:05.678Z,4.30
2023-04-22T18:11:32.749Z,7.97
2023-04-22T18:13:59.830Z,4.75
2023-04-22T18:16:26.893Z,8.45
2023-04-22T18:18:53.921Z,4.63
2023-04-22T18:21:21.035Z,3.85
2023-04-22T18:23:48.140Z,3.63
2023-04-22T18:26:15.163Z,8.70
2023-04-22T18:28:44.327Z,4.47
2023-04-22T18:31:11.507Z,8.25
2023-04-22T18:33:38.635Z,11.40
2023-04-22T18:36:06.091Z,8.48
2023-04-22T18:38:33.108Z,5.55
2023-04-22T18:41:00.092Z,4.03
2023-04-22T18:43:27.160Z,7.82
2023-04-22T18:45:54.319Z,3.55
2023-04-22T18:48:22.292Z,4.10
2023-04-22T18:50:50.312Z,4.45
2023-04-22T18:53:17.375Z,9.88
2023-04-22T18:55:44.449Z,10.00
2023-04-22T18:58:11.463Z,4.13
2023-04-22T19:00:38.583Z,7.45
2023-04-22T19:03:05.818Z,5.75
2023-04-22T19:05:32.912Z,5.25
2023-04-22T19:07:59.885Z,4.55
2023-04-22T19:10:26.991Z,5.80
2023-04-22T19:12:53.996Z,3.17
2023-04-22T19:15:21.595Z,5.95
2023-04-22T19:17:48.701Z,5.55
2023-04-22T19:20:15.930Z,3.92
2023-04-22T19:22:44.059Z,3.85
2023-04-22T19:25:11.223Z,6.28
2023-04-22T19:27:38.295Z,5.85
2023-04-22T19:30:07.038Z,3.50
2023-04-22T19:32:34.093Z,6.70
2023-04-22T19:35:03.876Z,6.95
2023-04-22T19:37:31.299Z,6.07
2023-04-22T19:39:58.288Z,3.60
2023-04-22T19:42:25.324Z,4.50
2023-04-22T19:44:52.350Z,3.28
2023-04-22T19:47:19.531Z,6.20
2023-04-22T19:49:46.771Z,2.70
2023-04-22T19:52:15.522Z,3.65
2023-04-22T19:54:47.642Z,1.05
2023-04-22T19:57:15.216Z,1.77
2023-04-22T19:59:43.193Z,1.00
2023-04-22T20:02:11.267Z,1.33
2023-04-22T20:04:38.641Z,1.23
2023-04-22T20:07:06.968Z,1.73
2023-04-22T20:09:35.426Z,0.70
2023-04-22T20:12:02.986Z,0.88
2023-04-22T20:14:31.524Z,1.38
2023-04-22T20:16:58.801Z,2.80
2023-04-22T20:19:27.557Z,1.52
2023-04-22T20:21:57.233Z,1.58
2023-04-22T20:24:25.800Z,1.80
2023-04-22T20:26:52.890Z,3.92
2023-04-22T20:29:21.215Z,5.32
2023-04-22T20:31:48.607Z,1.35
2023-04-22T20:34:15.778Z,2.22
2023-04-22T20:36:42.834Z,1.98
2023-04-22T20:39:14.026Z,4.13
2023-04-22T20:41:41.531Z,1.15
2023-04-22T20:44:09.191Z,3.25
2023-04-22T20:46:37.784Z,16.85
2023-04-22T20:49:04.820Z,3.08
2023-04-22T20:51:32.053Z,2.92
2023-04-22T20:53:59.152Z,1.83
2023-04-22T20:56:27.320Z,2.88
2023-04-22T20:58:54.352Z,1.52
2023-04-22T21:01:21.584Z,2.67
2023-04-22T21:03:52.702Z,4.50
2023-04-22T21:06:21.114Z,4.55
2023-04-22T21:08:52.537Z,1.98
2023-04-22T21:11:19.824Z,3.75
2023-04-22T21:13:48.741Z,4.70
2023-04-22T21:16:18.726Z,4.45
2023-04-22T21:18:46.321Z,3.30
2023-04-22T21:21:16.169Z,6.13
2023-04-22T21:23:43.609Z,2.85
2023-04-22T21:26:11.048Z,2.50
2023-04-22T21:28:39.053Z,8.07
2023-04-22T21:31:06.590Z,1.85
2023-04-22T21:33:33.578Z,4.95
2023-04-22T21:36:00.748Z,2.20
2023-04-22T21:38:27.908Z,4.13
2023-04-22T21:40:55.092Z,5.53
2023-04-22T21:43:22.282Z,2.78
2023-04-22T21:45:49.364Z,2.30
2023-04-22T21:48:16.516Z,3.70
2023-04-22T21:50:44.122Z,2.95
2023-04-22T21:53:11.790Z,6.93
2023-04-22T21:55:38.996Z,3.90
2023-04-22T21:58:06.037Z,4.38
2023-04-22T22:00:33.251Z,6.93
2023-04-22T22:03:00.417Z,2.55
2023-04-22T22:05:27.572Z,4.00
2023-04-22T22:07:55.244Z,5.47
2023-04-22T22:10:23.440Z,3.60
2023-04-22T22:12:51.254Z,5.13
2023-04-22T22:15:18.507Z,4.40
2023-04-22T22:17:45.919Z,2.67
2023-04-22T22:20:18.056Z,3.85
2023-04-22T22:22:45.111Z,3.95
2023-04-22T22:25:14.193Z,3.53
2023-04-22T22:27:45.612Z,5.10
2023-04-22T22:30:13.683Z,1.98
2023-04-22T22:32:41.109Z,8.35
2023-04-22T22:35:08.552Z,4.88
2023-04-22T22:37:35.833Z,3.85
2023-04-22T22:40:03.539Z,4.95
2023-04-22T22:42:30.628Z,3.67
2023-04-22T22:44:57.794Z,5.00
2023-04-22T22:47:25.573Z,3.13
2023-04-22T22:49:53.170Z,4.90
2023-04-22T22:52:20.329Z,4.03
2023-04-22T22:54:48.761Z,4.80
2023-04-22T22:57:16.238Z,4.53
2023-04-22T22:59:43.267Z,4.75
2023-04-22T23:02:10.735Z,5.25
2023-04-22T23:04:39.262Z,8.88
2023-04-22T23:07:06.478Z,3.95
2023-04-22T23:09:33.505Z,3.50
2023-04-22T23:12:00.831Z,5.63
2023-04-22T23:14:28.095Z,5.60
2023-04-22T23:16:55.179Z,4.38
2023-04-22T23:19:23.156Z,7.63
2023-04-22T23:21:50.537Z,8.57
2023-04-22T23:24:17.914Z,10.68
2023-04-22T23:26:45.796Z,2.67
2023-04-22T23:29:13.093Z,4.47
2023-04-22T23:31:40.595Z,8.70
2023-04-22T23:34:08.019Z,6.95
2023-04-22T23:36:38.912Z,8.75
2023-04-22T23:39:06.785Z,4.75
2023-04-22T23:41:33.910Z,5.03
2023-04-22T23:44:01.007Z,6.78
2023-04-22T23:46:28.202Z,3.72
2023-04-22T23:48:55.518Z,6.00
2023-04-22T23:51:22.745Z,4.47
2023-04-22T23:53:49.778Z,5.50
2023-04-22T23:56:20.994Z,3.00
2023-04-22T23:58:51.331Z,3.58
